Terminal Aerodrome Forecast
Issued by NWS Twin Cities, MN

Home | Current Version | Previous Version | Graphics & Text | Print | Product List | Glossary On
Versions: 1 2 3 4 5 6 7 8 9 10 11 12 13 14 15 16 17 18 19
000
FTUS43 KMPX 192300
TAFSTC
TAF
KSTC 192339Z 2000/2024 21006KT P6SM BKN040 BKN100
      TEMPO 2000/2002 -SHRA
     FM200800 29006KT P6SM SCT015
      TEMPO 2009/2012 4SM BR BKN015
     FM201400 30011KT P6SM BKN035
     FM202200 29013G20KT P6SM BKN045 OVC080
      TEMPO 2022/2024 2SM TSRA OVC030CB=

USA.gov is the U.S. government's official web portal to all federal, state and local government web resources and services.